sensor_id;sensor_type;location;lat;lon;timestamp;temperature;humidity
31979;DHT22;18502;43.574;1.276;2024-03-02T00:01:12;7.80;99.90
31979;DHT22;18502;43.574;1.276;2024-03-02T00:03:39;7.80;99.90
31979;DHT22;18502;43.574;1.276;2024-03-02T00:06:06;7.70;99.90
31979;DHT22;18502;43.574;1.276;2024-03-02T00:08:32;7.80;99.90
31979;DHT22;18502;43.574;1.276;2024-03-02T00:10:59;7.80;99.90
31979;DHT22;18502;43.574;1.276;2024-03-02T00:13:25;7.80;99.90
31979;DHT22;18502;43.574;1.276;2024-03-02T00:15:55;8.00;99.90
31979;DHT22;18502;43.574;1.276;2024-03-02T00:18:26;8.10;99.90
31979;DHT22;18502;43.574;1.276;2024-03-02T00:20:55;8.10;99.90
31979;DHT22;18502;43.574;1.276;2024-03-02T00:23:23;8.30;99.90
31979;DHT22;18502;43.574;1.276;2024-03-02T00:25:55;8.50;99.90
31979;DHT22;18502;43.574;1.276;2024-03-02T00:28:26;8.60;99.90
31979;DHT22;18502;43.574;1.276;2024-03-02T00:33:38;8.80;99.90
31979;DHT22;18502;43.574;1.276;2024-03-02T00:36:06;8.90;99.90
31979;DHT22;18502;43.574;1.276;2024-03-02T00:38:33;9.00;99.90
31979;DHT22;18502;43.574;1.276;2024-03-02T00:41:02;9.00;99.90
31979;DHT22;18502;43.574;1.276;2024-03-02T00:43:42;9.00;99.90
31979;DHT22;18502;43.574;1.276;2024-03-02T00:46:12;9.00;99.90
31979;DHT22;18502;43.574;1.276;2024-03-02T00:48:41;9.10;99.90
31979;DHT22;18502;43.574;1.276;2024-03-02T00:51:12;9.00;99.90
31979;DHT22;18502;43.574;1.276;2024-03-02T00:53:38;9.10;99.90
31979;DHT22;18502;43.574;1.276;2024-03-02T00:56:06;9.10;99.90
31979;DHT22;18502;43.574;1.276;2024-03-02T00:58:34;9.20;99.90
31979;DHT22;18502;43.574;1.276;2024-03-02T01:01:00;9.20;99.90
31979;DHT22;18502;43.574;1.276;2024-03-02T01:03:25;9.20;99.90
31979;DHT22;18502;43.574;1.276;2024-03-02T01:05:51;9.20;99.90
31979;DHT22;18502;43.574;1.276;2024-03-02T01:08:17;9.20;99.90
31979;DHT22;18502;43.574;1.276;2024-03-02T01:10:42;9.10;99.90
31979;DHT22;18502;43.574;1.276;2024-03-02T01:13:08;9.10;99.90
31979;DHT22;18502;43.574;1.276;2024-03-02T01:15:34;9.10;99.90
31979;DHT22;18502;43.574;1.276;2024-03-02T01:18:00;9.10;99.90
31979;DHT22;18502;43.574;1.276;2024-03-02T01:20:26;9.10;99.90
31979;DHT22;18502;43.574;1.276;2024-03-02T01:22:52;9.10;99.90
31979;DHT22;18502;43.574;1.276;2024-03-02T01:25:18;9.20;99.90
31979;DHT22;18502;43.574;1.276;2024-03-02T01:27:44;9.20;99.90
31979;DHT22;18502;43.574;1.276;2024-03-02T01:30:10;9.20;99.90
31979;DHT22;18502;43.574;1.276;2024-03-02T01:32:38;9.30;99.90
31979;DHT22;18502;43.574;1.276;2024-03-02T01:35:04;9.30;99.90
31979;DHT22;18502;43.574;1.276;2024-03-02T01:37:30;9.40;99.90
31979;DHT22;18502;43.574;1.276;2024-03-02T01:39:56;9.30;99.90
31979;DHT22;18502;43.574;1.276;2024-03-02T01:42:21;9.30;99.90
31979;DHT22;18502;43.574;1.276;2024-03-02T01:44:47;9.20;99.90
31979;DHT22;18502;43.574;1.276;2024-03-02T01:47:13;9.10;99.90
31979;DHT22;18502;43.574;1.276;2024-03-02T01:49:39;9.20;99.90
31979;DHT22;18502;43.574;1.276;2024-03-02T01:52:06;9.20;99.90
31979;DHT22;18502;43.574;1.276;2024-03-02T01:54:32;9.30;99.90
31979;DHT22;18502;43.574;1.276;2024-03-02T01:56:58;9.30;99.90
31979;DHT22;18502;43.574;1.276;2024-03-02T01:59:24;9.30;99.90
31979;DHT22;18502;43.574;1.276;2024-03-02T02:01:50;9.30;99.90
31979;DHT22;18502;43.574;1.276;2024-03-02T02:04:15;9.30;99.90
31979;DHT22;18502;43.574;1.276;2024-03-02T02:06:41;9.20;99.90
31979;DHT22;18502;43.574;1.276;2024-03-02T02:09:09;9.10;99.90
31979;DHT22;18502;43.574;1.276;2024-03-02T02:11:34;9.00;99.90
31979;DHT22;18502;43.574;1.276;2024-03-02T02:14:00;9.00;99.90
31979;DHT22;18502;43.574;1.276;2024-03-02T02:16:26;8.90;99.90
31979;DHT22;18502;43.574;1.276;2024-03-02T02:18:51;9.00;99.90
31979;DHT22;18502;43.574;1.276;2024-03-02T02:21:17;8.90;99.90
31979;DHT22;18502;43.574;1.276;2024-03-02T02:23:42;8.90;99.90
31979;DHT22;18502;43.574;1.276;2024-03-02T02:26:12;8.80;99.90
31979;DHT22;18502;43.574;1.276;2024-03-02T02:28:37;8.80;99.90
31979;DHT22;18502;43.574;1.276;2024-03-02T02:31:03;8.70;99.90
31979;DHT22;18502;43.574;1.276;2024-03-02T02:33:29;8.70;99.90
31979;DHT22;18502;43.574;1.276;2024-03-02T02:35:54;8.70;99.90
31979;DHT22;18502;43.574;1.276;2024-03-02T02:38:20;8.60;99.90
31979;DHT22;18502;43.574;1.276;2024-03-02T02:40:46;8.70;99.90
31979;DHT22;18502;43.574;1.276;2024-03-02T02:43:11;8.60;99.90
31979;DHT22;18502;43.574;1.276;2024-03-02T02:45:37;8.60;99.90
31979;DHT22;18502;43.574;1.276;2024-03-02T02:48:03;8.60;99.90
31979;DHT22;18502;43.574;1.276;2024-03-02T02:50:29;8.40;99.90
31979;DHT22;18502;43.574;1.276;2024-03-02T02:52:54;8.30;99.90
31979;DHT22;18502;43.574;1.276;2024-03-02T02:55:20;8.40;99.90
31979;DHT22;18502;43.574;1.276;2024-03-02T02:57:45;8.20;99.90
31979;DHT22;18502;43.574;1.276;2024-03-02T03:00:13;8.20;99.90
31979;DHT22;18502;43.574;1.276;2024-03-02T03:02:40;8.00;99.90
31979;DHT22;18502;43.574;1.276;2024-03-02T03:05:08;8.00;99.90
31979;DHT22;18502;43.574;1.276;2024-03-02T03:07:34;8.00;99.90
31979;DHT22;18502;43.574;1.276;2024-03-02T03:10:00;7.90;99.90
31979;DHT22;18502;43.574;1.276;2024-03-02T03:12:26;7.80;99.90
31979;DHT22;18502;43.574;1.276;2024-03-02T03:14:52;7.70;99.90
31979;DHT22;18502;43.574;1.276;2024-03-02T03:17:18;7.50;99.90
31979;DHT22;18502;43.574;1.276;2024-03-02T03:19:43;7.60;99.90
31979;DHT22;18502;43.574;1.276;2024-03-02T03:22:09;7.60;99.90
31979;DHT22;18502;43.574;1.276;2024-03-02T03:24:35;7.60;99.90
31979;DHT22;18502;43.574;1.276;2024-03-02T03:27:00;7.50;99.90
31979;DHT22;18502;43.574;1.276;2024-03-02T03:29:26;7.40;99.90
31979;DHT22;18502;43.574;1.276;2024-03-02T03:31:52;7.30;99.90
31979;DHT22;18502;43.574;1.276;2024-03-02T03:34:17;7.10;99.90
31979;DHT22;18502;43.574;1.276;2024-03-02T03:36:43;7.00;99.90
31979;DHT22;18502;43.574;1.276;2024-03-02T03:39:09;7.00;99.90
31979;DHT22;18502;43.574;1.276;2024-03-02T03:41:34;7.00;99.90
31979;DHT22;18502;43.574;1.276;2024-03-02T03:44:00;6.90;99.90
31979;DHT22;18502;43.574;1.276;2024-03-02T03:46:25;6.80;99.90
31979;DHT22;18502;43.574;1.276;2024-03-02T03:48:51;6.80;99.90
31979;DHT22;18502;43.574;1.276;2024-03-02T03:51:17;6.70;99.90
31979;DHT22;18502;43.574;1.276;2024-03-02T03:53:42;6.70;99.90
31979;DHT22;18502;43.574;1.276;2024-03-02T03:56:08;6.60;99.90
31979;DHT22;18502;43.574;1.276;2024-03-02T03:58:34;6.60;99.90
31979;DHT22;18502;43.574;1.276;2024-03-02T04:00:59;6.60;99.90
31979;DHT22;18502;43.574;1.276;2024-03-02T04:03:25;6.50;99.90
31979;DHT22;18502;43.574;1.276;2024-03-02T04:05:50;6.60;99.90
31979;DHT22;18502;43.574;1.276;2024-03-02T04:08:16;6.50;99.90
31979;DHT22;18502;43.574;1.276;2024-03-02T04:10:42;6.50;99.90
31979;DHT22;18502;43.574;1.276;2024-03-02T04:13:08;6.40;99.90
31979;DHT22;18502;43.574;1.276;2024-03-02T04:15:33;6.50;99.90
31979;DHT22;18502;43.574;1.276;2024-03-02T04:17:59;6.50;99.90
31979;DHT22;18502;43.574;1.276;2024-03-02T04:20:24;6.50;99.90
31979;DHT22;18502;43.574;1.276;2024-03-02T04:22:51;6.40;99.90
31979;DHT22;18502;43.574;1.276;2024-03-02T04:25:16;6.40;99.90
31979;DHT22;18502;43.574;1.276;2024-03-02T04:27:42;6.50;99.90
31979;DHT22;18502;43.574;1.276;2024-03-02T04:30:07;6.50;99.90
31979;DHT22;18502;43.574;1.276;2024-03-02T04:32:33;6.40;99.90
31979;DHT22;18502;43.574;1.276;2024-03-02T04:34:59;6.50;99.90
31979;DHT22;18502;43.574;1.276;2024-03-02T04:37:25;6.50;99.90
31979;DHT22;18502;43.574;1.276;2024-03-02T04:39:50;6.50;99.90
31979;DHT22;18502;43.574;1.276;2024-03-02T04:42:16;6.40;99.90
31979;DHT22;18502;43.574;1.276;2024-03-02T04:44:42;6.40;99.90
31979;DHT22;18502;43.574;1.276;2024-03-02T04:47:07;6.40;99.90
31979;DHT22;18502;43.574;1.276;2024-03-02T04:49:33;6.40;99.90
31979;DHT22;18502;43.574;1.276;2024-03-02T04:51:59;6.50;99.90
31979;DHT22;18502;43.574;1.276;2024-03-02T04:54:24;6.50;99.90
31979;DHT22;18502;43.574;1.276;2024-03-02T04:56:50;6.50;99.90
31979;DHT22;18502;43.574;1.276;2024-03-02T04:59:19;6.30;99.90
31979;DHT22;18502;43.574;1.276;2024-03-02T05:01:45;6.30;99.90
31979;DHT22;18502;43.574;1.276;2024-03-02T05:04:11;6.20;99.90
31979;DHT22;18502;43.574;1.276;2024-03-02T05:06:40;6.20;99.90
31979;DHT22;18502;43.574;1.276;2024-03-02T05:09:07;6.10;99.90
31979;DHT22;18502;43.574;1.276;2024-03-02T05:11:32;6.10;99.90
31979;DHT22;18502;43.574;1.276;2024-03-02T05:14:05;6.10;99.90
31979;DHT22;18502;43.574;1.276;2024-03-02T05:16:37;6.20;99.90
31979;DHT22;18502;43.574;1.276;2024-03-02T05:19:09;6.10;99.90
31979;DHT22;18502;43.574;1.276;2024-03-02T05:21:35;6.20;99.90
31979;DHT22;18502;43.574;1.276;2024-03-02T05:24:00;6.20;99.90
31979;DHT22;18502;43.574;1.276;2024-03-02T05:26:26;6.20;99.90
31979;DHT22;18502;43.574;1.276;2024-03-02T05:28:52;6.20;99.90
31979;DHT22;18502;43.574;1.276;2024-03-02T05:31:18;6.20;99.90
31979;DHT22;18502;43.574;1.276;2024-03-02T05:33:44;6.20;99.90
31979;DHT22;18502;43.574;1.276;2024-03-02T05:36:10;6.10;99.90
31979;DHT22;18502;43.574;1.276;2024-03-02T05:38:36;6.10;99.90
31979;DHT22;18502;43.574;1.276;2024-03-02T05:41:01;6.20;99.90
31979;DHT22;18502;43.574;1.276;2024-03-02T05:43:27;6.20;99.90
31979;DHT22;18502;43.574;1.276;2024-03-02T05:45:53;6.10;99.90
31979;DHT22;18502;43.574;1.276;2024-03-02T05:48:18;6.10;99.90
31979;DHT22;18502;43.574;1.276;2024-03-02T05:50:44;6.10;99.90
31979;DHT22;18502;43.574;1.276;2024-03-02T05:53:10;6.10;99.90
31979;DHT22;18502;43.574;1.276;2024-03-02T05:55:35;6.10;99.90
31979;DHT22;18502;43.574;1.276;2024-03-02T05:58:01;6.10;99.90
31979;DHT22;18502;43.574;1.276;2024-03-02T06:00:45;6.10;99.90
31979;DHT22;18502;43.574;1.276;2024-03-02T06:03:11;6.10;99.90
31979;DHT22;18502;43.574;1.276;2024-03-02T06:05:37;6.10;99.90
31979;DHT22;18502;43.574;1.276;2024-03-02T06:08:03;6.10;99.90
31979;DHT22;18502;43.574;1.276;2024-03-02T06:10:28;6.10;99.90
31979;DHT22;18502;43.574;1.276;2024-03-02T06:12:54;6.00;99.90
31979;DHT22;18502;43.574;1.276;2024-03-02T06:15:20;6.00;99.90
31979;DHT22;18502;43.574;1.276;2024-03-02T06:17:45;6.00;99.90
31979;DHT22;18502;43.574;1.276;2024-03-02T06:20:11;6.10;99.90
31979;DHT22;18502;43.574;1.276;2024-03-02T06:22:37;6.10;99.90
31979;DHT22;18502;43.574;1.276;2024-03-02T06:25:02;6.00;99.90
31979;DHT22;18502;43.574;1.276;2024-03-02T06:27:28;6.00;99.90
31979;DHT22;18502;43.574;1.276;2024-03-02T06:29:54;6.00;99.90
31979;DHT22;18502;43.574;1.276;2024-03-02T06:32:20;6.00;99.90
31979;DHT22;18502;43.574;1.276;2024-03-02T06:34:45;6.00;99.90
31979;DHT22;18502;43.574;1.276;2024-03-02T06:37:11;6.00;99.90
31979;DHT22;18502;43.574;1.276;2024-03-02T06:39:38;6.10;99.90
31979;DHT22;18502;43.574;1.276;2024-03-02T06:42:04;6.00;99.90
31979;DHT22;18502;43.574;1.276;2024-03-02T06:44:29;6.00;99.90
31979;DHT22;18502;43.574;1.276;2024-03-02T06:46:55;6.00;99.90
31979;DHT22;18502;43.574;1.276;2024-03-02T06:49:21;6.10;99.90
31979;DHT22;18502;43.574;1.276;2024-03-02T06:51:46;6.10;99.90
31979;DHT22;18502;43.574;1.276;2024-03-02T06:54:12;6.20;99.90
31979;DHT22;18502;43.574;1.276;2024-03-02T06:56:37;6.20;99.90
31979;DHT22;18502;43.574;1.276;2024-03-02T06:59:04;6.30;99.90
31979;DHT22;18502;43.574;1.276;2024-03-02T07:01:30;6.40;99.90
31979;DHT22;18502;43.574;1.276;2024-03-02T07:03:55;6.30;99.90
31979;DHT22;18502;43.574;1.276;2024-03-02T07:06:21;6.40;99.90
31979;DHT22;18502;43.574;1.276;2024-03-02T07:08:46;6.40;99.90
31979;DHT22;18502;43.574;1.276;2024-03-02T07:11:12;6.40;99.90
31979;DHT22;18502;43.574;1.276;2024-03-02T07:13:38;6.50;99.90
31979;DHT22;18502;43.574;1.276;2024-03-02T07:16:04;6.60;99.90
31979;DHT22;18502;43.574;1.276;2024-03-02T07:18:30;6.60;99.90
31979;DHT22;18502;43.574;1.276;2024-03-02T07:20:56;6.60;99.90
31979;DHT22;18502;43.574;1.276;2024-03-02T07:23:26;6.70;99.90
31979;DHT22;18502;43.574;1.276;2024-03-02T07:25:53;6.70;99.90
31979;DHT22;18502;43.574;1.276;2024-03-02T07:28:26;6.90;99.90
31979;DHT22;18502;43.574;1.276;2024-03-02T07:30:59;7.00;99.90
31979;DHT22;18502;43.574;1.276;2024-03-02T07:33:24;7.10;99.90
31979;DHT22;18502;43.574;1.276;2024-03-02T07:35:51;7.10;99.90
31979;DHT22;18502;43.574;1.276;2024-03-02T07:38:17;6.90;99.90
31979;DHT22;18502;43.574;1.276;2024-03-02T07:40:42;6.90;99.90
31979;DHT22;18502;43.574;1.276;2024-03-02T07:43:08;7.10;99.90
31979;DHT22;18502;43.574;1.276;2024-03-02T07:45:35;7.20;99.90
31979;DHT22;18502;43.574;1.276;2024-03-02T07:48:04;7.20;99.90
31979;DHT22;18502;43.574;1.276;2024-03-02T07:50:29;7.10;99.90
31979;DHT22;18502;43.574;1.276;2024-03-02T07:53:01;7.20;99.90
31979;DHT22;18502;43.574;1.276;2024-03-02T07:55:26;7.20;99.90
31979;DHT22;18502;43.574;1.276;2024-03-02T07:57:52;7.20;99.90
31979;DHT22;18502;43.574;1.276;2024-03-02T08:00:18;7.30;99.90
31979;DHT22;18502;43.574;1.276;2024-03-02T08:02:44;7.50;99.90
31979;DHT22;18502;43.574;1.276;2024-03-02T08:05:10;7.80;99.90
31979;DHT22;18502;43.574;1.276;2024-03-02T08:07:35;8.10;99.90
31979;DHT22;18502;43.574;1.276;2024-03-02T08:10:01;8.30;99.90
31979;DHT22;18502;43.574;1.276;2024-03-02T08:12:27;8.30;99.90
31979;DHT22;18502;43.574;1.276;2024-03-02T08:14:52;8.80;99.90
31979;DHT22;18502;43.574;1.276;2024-03-02T08:17:18;8.70;99.90
31979;DHT22;18502;43.574;1.276;2024-03-02T08:19:44;8.90;99.90
31979;DHT22;18502;43.574;1.276;2024-03-02T08:22:10;8.90;99.90
31979;DHT22;18502;43.574;1.276;2024-03-02T08:24:36;8.70;99.90
31979;DHT22;18502;43.574;1.276;2024-03-02T08:27:02;8.90;99.90
31979;DHT22;18502;43.574;1.276;2024-03-02T08:29:27;9.10;99.90
31979;DHT22;18502;43.574;1.276;2024-03-02T08:31:54;9.10;99.90
31979;DHT22;18502;43.574;1.276;2024-03-02T08:34:19;8.90;99.90
31979;DHT22;18502;43.574;1.276;2024-03-02T08:36:46;9.00;99.90
31979;DHT22;18502;43.574;1.276;2024-03-02T08:39:12;8.80;99.90
31979;DHT22;18502;43.574;1.276;2024-03-02T08:41:46;8.90;99.90
31979;DHT22;18502;43.574;1.276;2024-03-02T08:44:13;9.00;99.90
31979;DHT22;18502;43.574;1.276;2024-03-02T08:46:39;9.00;99.90
31979;DHT22;18502;43.574;1.276;2024-03-02T08:49:06;9.00;99.90
31979;DHT22;18502;43.574;1.276;2024-03-02T08:51:31;9.00;99.90
31979;DHT22;18502;43.574;1.276;2024-03-02T08:53:57;9.10;99.90
31979;DHT22;18502;43.574;1.276;2024-03-02T08:56:24;9.20;99.90
31979;DHT22;18502;43.574;1.276;2024-03-02T08:58:50;9.20;99.90
31979;DHT22;18502;43.574;1.276;2024-03-02T09:01:16;9.40;99.90
31979;DHT22;18502;43.574;1.276;2024-03-02T09:03:42;9.50;99.90
31979;DHT22;18502;43.574;1.276;2024-03-02T09:06:12;9.70;99.90
31979;DHT22;18502;43.574;1.276;2024-03-02T09:08:38;9.90;99.90
31979;DHT22;18502;43.574;1.276;2024-03-02T09:11:07;10.10;99.90
31979;DHT22;18502;43.574;1.276;2024-03-02T09:13:33;10.30;99.90
31979;DHT22;18502;43.574;1.276;2024-03-02T09:15:59;10.50;99.90
31979;DHT22;18502;43.574;1.276;2024-03-02T09:18:25;10.70;99.90
31979;DHT22;18502;43.574;1.276;2024-03-02T09:20:50;10.70;99.90
31979;DHT22;18502;43.574;1.276;2024-03-02T09:23:16;10.60;99.90
31979;DHT22;18502;43.574;1.276;2024-03-02T09:25:41;10.70;99.90
31979;DHT22;18502;43.574;1.276;2024-03-02T09:28:07;10.60;99.90
31979;DHT22;18502;43.574;1.276;2024-03-02T09:30:33;10.50;99.90
31979;DHT22;18502;43.574;1.276;2024-03-02T09:32:58;10.20;99.90
31979;DHT22;18502;43.574;1.276;2024-03-02T09:35:24;10.20;99.90
31979;DHT22;18502;43.574;1.276;2024-03-02T09:37:50;10.00;99.90
31979;DHT22;18502;43.574;1.276;2024-03-02T09:40:16;10.00;99.90
31979;DHT22;18502;43.574;1.276;2024-03-02T09:42:42;10.00;99.90
31979;DHT22;18502;43.574;1.276;2024-03-02T09:45:09;9.90;99.90
31979;DHT22;18502;43.574;1.276;2024-03-02T09:47:35;9.90;99.90
31979;DHT22;18502;43.574;1.276;2024-03-02T09:50:01;9.90;99.90
31979;DHT22;18502;43.574;1.276;2024-03-02T09:52:27;9.90;99.90
31979;DHT22;18502;43.574;1.276;2024-03-02T09:54:53;9.90;99.90
31979;DHT22;18502;43.574;1.276;2024-03-02T09:57:18;9.90;99.90
31979;DHT22;18502;43.574;1.276;2024-03-02T09:59:44;9.80;99.90
31979;DHT22;18502;43.574;1.276;2024-03-02T10:02:11;9.80;99.90
31979;DHT22;18502;43.574;1.276;2024-03-02T10:04:36;9.80;99.90
31979;DHT22;18502;43.574;1.276;2024-03-02T10:07:15;9.80;99.90
31979;DHT22;18502;43.574;1.276;2024-03-02T10:09:42;9.90;99.90
31979;DHT22;18502;43.574;1.276;2024-03-02T10:12:10;9.90;99.90
31979;DHT22;18502;43.574;1.276;2024-03-02T10:14:37;10.00;99.90
31979;DHT22;18502;43.574;1.276;2024-03-02T10:17:10;10.10;99.90
31979;DHT22;18502;43.574;1.276;2024-03-02T10:19:37;10.20;99.90
31979;DHT22;18502;43.574;1.276;2024-03-02T10:22:07;10.40;99.90
31979;DHT22;18502;43.574;1.276;2024-03-02T10:24:39;10.50;99.90
31979;DHT22;18502;43.574;1.276;2024-03-02T10:27:26;10.60;99.90
31979;DHT22;18502;43.574;1.276;2024-03-02T10:29:52;10.80;99.90
31979;DHT22;18502;43.574;1.276;2024-03-02T10:32:17;10.90;99.90
31979;DHT22;18502;43.574;1.276;2024-03-02T10:34:45;11.00;99.90
31979;DHT22;18502;43.574;1.276;2024-03-02T10:37:12;11.20;99.90
31979;DHT22;18502;43.574;1.276;2024-03-02T10:39:38;11.20;99.90
31979;DHT22;18502;43.574;1.276;2024-03-02T10:42:07;11.30;99.90
31979;DHT22;18502;43.574;1.276;2024-03-02T10:44:34;11.50;99.90
31979;DHT22;18502;43.574;1.276;2024-03-02T10:47:05;11.60;99.90
31979;DHT22;18502;43.574;1.276;2024-03-02T10:49:32;11.60;99.90
31979;DHT22;18502;43.574;1.276;2024-03-02T10:51:59;11.80;99.90
31979;DHT22;18502;43.574;1.276;2024-03-02T10:54:25;12.00;99.90
31979;DHT22;18502;43.574;1.276;2024-03-02T10:57:01;12.10;99.90
31979;DHT22;18502;43.574;1.276;2024-03-02T10:59:36;12.20;99.90
31979;DHT22;18502;43.574;1.276;2024-03-02T11:02:03;12.30;99.90
31979;DHT22;18502;43.574;1.276;2024-03-02T11:04:30;12.30;99.90
31979;DHT22;18502;43.574;1.276;2024-03-02T11:07:02;12.40;99.90
31979;DHT22;18502;43.574;1.276;2024-03-02T11:09:30;12.50;99.90
31979;DHT22;18502;43.574;1.276;2024-03-02T11:12:06;12.60;99.90
31979;DHT22;18502;43.574;1.276;2024-03-02T11:14:40;12.40;99.90
31979;DHT22;18502;43.574;1.276;2024-03-02T11:17:07;12.40;99.90
31979;DHT22;18502;43.574;1.276;2024-03-02T11:19:33;12.40;99.90
31979;DHT22;18502;43.574;1.276;2024-03-02T11:22:00;12.40;99.90
31979;DHT22;18502;43.574;1.276;2024-03-02T11:26:58;12.50;99.90
31979;DHT22;18502;43.574;1.276;2024-03-02T11:32:03;12.60;99.90
31979;DHT22;18502;43.574;1.276;2024-03-02T11:34:32;12.60;99.90
31979;DHT22;18502;43.574;1.276;2024-03-02T11:36:59;12.70;99.90
31979;DHT22;18502;43.574;1.276;2024-03-02T11:39:27;12.70;99.90
31979;DHT22;18502;43.574;1.276;2024-03-02T11:41:52;12.90;99.90
31979;DHT22;18502;43.574;1.276;2024-03-02T11:44:18;13.00;99.90
31979;DHT22;18502;43.574;1.276;2024-03-02T11:46:53;13.40;99.90
31979;DHT22;18502;43.574;1.276;2024-03-02T11:49:42;13.40;99.90
31979;DHT22;18502;43.574;1.276;2024-03-02T11:52:10;13.40;99.90
31979;DHT22;18502;43.574;1.276;2024-03-02T11:54:37;13.70;99.90
31979;DHT22;18502;43.574;1.276;2024-03-02T11:57:07;13.90;99.90
31979;DHT22;18502;43.574;1.276;2024-03-02T11:59:33;14.20;99.90
31979;DHT22;18502;43.574;1.276;2024-03-02T12:01:59;14.30;99.90
31979;DHT22;18502;43.574;1.276;2024-03-02T12:04:25;14.70;99.90
31979;DHT22;18502;43.574;1.276;2024-03-02T12:07:01;15.20;99.90
31979;DHT22;18502;43.574;1.276;2024-03-02T12:09:30;14.50;99.90
31979;DHT22;18502;43.574;1.276;2024-03-02T12:12:03;14.50;99.90
31979;DHT22;18502;43.574;1.276;2024-03-02T12:14:30;14.60;99.90
31979;DHT22;18502;43.574;1.276;2024-03-02T12:16:55;14.20;99.90
31979;DHT22;18502;43.574;1.276;2024-03-02T12:19:21;14.10;99.90
31979;DHT22;18502;43.574;1.276;2024-03-02T12:21:47;14.10;99.90
31979;DHT22;18502;43.574;1.276;2024-03-02T12:24:13;13.80;99.90
31979;DHT22;18502;43.574;1.276;2024-03-02T12:26:39;13.70;99.90
31979;DHT22;18502;43.574;1.276;2024-03-02T12:29:05;13.60;99.90
31979;DHT22;18502;43.574;1.276;2024-03-02T12:31:31;13.70;99.90
31979;DHT22;18502;43.574;1.276;2024-03-02T12:33:58;14.00;99.90
31979;DHT22;18502;43.574;1.276;2024-03-02T12:36:24;13.80;99.90
31979;DHT22;18502;43.574;1.276;2024-03-02T12:38:53;14.00;99.90
31979;DHT22;18502;43.574;1.276;2024-03-02T12:41:18;14.80;99.90
31979;DHT22;18502;43.574;1.276;2024-03-02T12:43:44;14.80;99.90
31979;DHT22;18502;43.574;1.276;2024-03-02T12:46:11;15.30;99.90
31979;DHT22;18502;43.574;1.276;2024-03-02T12:48:37;16.40;99.90
31979;DHT22;18502;43.574;1.276;2024-03-02T12:51:04;17.20;99.90
31979;DHT22;18502;43.574;1.276;2024-03-02T12:53:30;19.30;99.90
31979;DHT22;18502;43.574;1.276;2024-03-02T12:55:57;18.40;99.90
31979;DHT22;18502;43.574;1.276;2024-03-02T12:58:22;17.40;99.90
31979;DHT22;18502;43.574;1.276;2024-03-02T13:00:48;18.10;99.90
31979;DHT22;18502;43.574;1.276;2024-03-02T13:03:14;17.90;99.90
31979;DHT22;18502;43.574;1.276;2024-03-02T13:05:48;18.80;99.90
31979;DHT22;18502;43.574;1.276;2024-03-02T13:08:14;20.30;99.90
31979;DHT22;18502;43.574;1.276;2024-03-02T13:10:40;20.10;99.90
31979;DHT22;18502;43.574;1.276;2024-03-02T13:13:06;19.00;99.90
31979;DHT22;18502;43.574;1.276;2024-03-02T13:15:33;18.90;99.90
31979;DHT22;18502;43.574;1.276;2024-03-02T13:17:59;18.50;99.90
31979;DHT22;18502;43.574;1.276;2024-03-02T13:20:31;20.00;99.90
31979;DHT22;18502;43.574;1.276;2024-03-02T13:22:57;19.40;99.90
31979;DHT22;18502;43.574;1.276;2024-03-02T13:25:23;17.90;99.90
31979;DHT22;18502;43.574;1.276;2024-03-02T13:27:48;17.30;99.90
31979;DHT22;18502;43.574;1.276;2024-03-02T13:30:14;16.50;99.90
31979;DHT22;18502;43.574;1.276;2024-03-02T13:32:40;16.50;99.90
31979;DHT22;18502;43.574;1.276;2024-03-02T13:35:06;16.00;99.90
31979;DHT22;18502;43.574;1.276;2024-03-02T13:37:32;15.50;99.90
31979;DHT22;18502;43.574;1.276;2024-03-02T13:39:57;15.10;99.90
31979;DHT22;18502;43.574;1.276;2024-03-02T13:42:24;14.90;99.90
31979;DHT22;18502;43.574;1.276;2024-03-02T13:44:49;14.50;99.90
31979;DHT22;18502;43.574;1.276;2024-03-02T13:47:16;14.60;99.90
31979;DHT22;18502;43.574;1.276;2024-03-02T13:49:42;14.60;99.90
31979;DHT22;18502;43.574;1.276;2024-03-02T13:52:12;14.60;99.90
31979;DHT22;18502;43.574;1.276;2024-03-02T13:54:43;14.50;99.90
31979;DHT22;18502;43.574;1.276;2024-03-02T13:57:10;14.50;99.90
31979;DHT22;18502;43.574;1.276;2024-03-02T13:59:36;14.40;99.90
31979;DHT22;18502;43.574;1.276;2024-03-02T14:02:02;14.30;99.90
31979;DHT22;18502;43.574;1.276;2024-03-02T14:04:32;14.30;99.90
31979;DHT22;18502;43.574;1.276;2024-03-02T14:06:59;14.40;99.90
31979;DHT22;18502;43.574;1.276;2024-03-02T14:09:24;14.30;99.90
31979;DHT22;18502;43.574;1.276;2024-03-02T14:11:51;14.30;99.90
31979;DHT22;18502;43.574;1.276;2024-03-02T14:14:17;14.20;99.90
31979;DHT22;18502;43.574;1.276;2024-03-02T14:16:43;14.10;99.90
31979;DHT22;18502;43.574;1.276;2024-03-02T14:19:10;14.20;99.90
31979;DHT22;18502;43.574;1.276;2024-03-02T14:21:37;14.20;99.90
31979;DHT22;18502;43.574;1.276;2024-03-02T14:24:03;14.00;99.90
31979;DHT22;18502;43.574;1.276;2024-03-02T14:26:30;14.10;99.90
31979;DHT22;18502;43.574;1.276;2024-03-02T14:28:55;14.10;99.90
31979;DHT22;18502;43.574;1.276;2024-03-02T14:31:21;14.10;99.90
31979;DHT22;18502;43.574;1.276;2024-03-02T14:33:47;14.00;99.90
31979;DHT22;18502;43.574;1.276;2024-03-02T14:36:13;14.00;99.90
31979;DHT22;18502;43.574;1.276;2024-03-02T14:38:39;13.90;99.90
31979;DHT22;18502;43.574;1.276;2024-03-02T14:41:05;13.80;99.90
31979;DHT22;18502;43.574;1.276;2024-03-02T14:43:31;13.70;99.90
31979;DHT22;18502;43.574;1.276;2024-03-02T14:45:56;13.70;99.90
31979;DHT22;18502;43.574;1.276;2024-03-02T14:48:24;13.80;99.90
31979;DHT22;18502;43.574;1.276;2024-03-02T14:50:50;13.80;99.90
31979;DHT22;18502;43.574;1.276;2024-03-02T14:53:16;13.60;99.90
31979;DHT22;18502;43.574;1.276;2024-03-02T14:55:42;13.50;99.90
31979;DHT22;18502;43.574;1.276;2024-03-02T14:58:07;13.30;99.90
31979;DHT22;18502;43.574;1.276;2024-03-02T15:00:33;13.20;99.90
31979;DHT22;18502;43.574;1.276;2024-03-02T15:02:59;13.20;99.90
31979;DHT22;18502;43.574;1.276;2024-03-02T15:05:25;13.20;99.90
31979;DHT22;18502;43.574;1.276;2024-03-02T15:07:52;13.20;99.90
31979;DHT22;18502;43.574;1.276;2024-03-02T15:10:18;13.30;99.90
31979;DHT22;18502;43.574;1.276;2024-03-02T15:12:44;13.20;99.90
31979;DHT22;18502;43.574;1.276;2024-03-02T15:15:10;13.30;99.90
31979;DHT22;18502;43.574;1.276;2024-03-02T15:17:38;13.40;99.90
31979;DHT22;18502;43.574;1.276;2024-03-02T15:20:05;13.40;99.90
31979;DHT22;18502;43.574;1.276;2024-03-02T15:22:32;13.50;99.90
31979;DHT22;18502;43.574;1.276;2024-03-02T15:24:58;13.40;99.90
31979;DHT22;18502;43.574;1.276;2024-03-02T15:27:24;13.40;99.90
31979;DHT22;18502;43.574;1.276;2024-03-02T15:29:50;13.30;99.90
31979;DHT22;18502;43.574;1.276;2024-03-02T15:32:17;13.10;99.90
31979;DHT22;18502;43.574;1.276;2024-03-02T15:34:43;13.20;99.90
31979;DHT22;18502;43.574;1.276;2024-03-02T15:37:09;13.30;99.90
31979;DHT22;18502;43.574;1.276;2024-03-02T15:39:34;13.30;99.90
31979;DHT22;18502;43.574;1.276;2024-03-02T15:42:00;13.30;99.90
31979;DHT22;18502;43.574;1.276;2024-03-02T15:44:27;13.30;99.90